TimeCDT,TemperatureF,Dew PointF,Humidity,Sea Level PressureIn,VisibilityMPH,Wind Direction,Wind SpeedMPH,Gust SpeedMPH,PrecipitationIn,Events,Conditions,WindDirDegrees,DateUTC
12:53 AM,46.0,41.0,83,30.24,10.0,NNE,9.2,-,0.00,,Overcast,30,2012-10-07 05:53:00
1:53 AM,46.0,42.1,86,30.23,10.0,NNE,3.5,-,0.00,,Overcast,20,2012-10-07 06:53:00
2:53 AM,46.9,42.1,83,30.25,10.0,NNW,6.9,-,N/A,,Overcast,340,2012-10-07 07:53:00
3:02 AM,46.4,42.8,87,30.24,10.0,North,5.8,-,N/A,,Overcast,350,2012-10-07 08:02:00
3:53 AM,46.9,42.1,83,30.25,10.0,North,9.2,-,N/A,,Overcast,360,2012-10-07 08:53:00
4:53 AM,46.0,39.9,79,30.25,10.0,North,9.2,20.7,N/A,,Overcast,360,2012-10-07 09:53:00
5:53 AM,46.0,39.9,79,30.26,10.0,North,10.4,-,N/A,,Overcast,10,2012-10-07 10:53:00
6:53 AM,45.0,39.9,82,30.27,10.0,North,10.4,-,N/A,,Partly Cloudy,10,2012-10-07 11:53:00
7:53 AM,45.0,39.0,80,30.29,10.0,North,9.2,-,N/A,,Clear,360,2012-10-07 12:53:00
8:53 AM,46.0,39.0,76,30.29,10.0,NNE,10.4,19.6,N/A,,Clear,20,2012-10-07 13:53:00
9:53 AM,48.9,39.0,69,30.30,10.0,NE,10.4,-,N/A,,Clear,40,2012-10-07 14:53:00
10:53 AM,52.0,39.0,61,30.29,10.0,NE,9.2,-,0.00,,Clear,50,2012-10-07 15:53:00
11:53 AM,54.0,37.9,55,30.28,10.0,NE,8.1,-,N/A,,Clear,50,2012-10-07 16:53:00
12:53 PM,55.9,39.0,53,30.27,10.0,North,3.5,-,N/A,,Clear,10,2012-10-07 17:53:00
1:53 PM,57.0,37.9,49,30.23,10.0,NE,8.1,-,N/A,,Clear,40,2012-10-07 18:53:00
2:53 PM,57.9,37.9,47,30.21,10.0,Variable,5.8,-,0.00,Rain,Light Rain,0,2012-10-07 19:53:00
3:53 PM,55.9,37.0,49,30.21,10.0,NNW,8.1,-,0.00,,Clear,340,2012-10-07 20:53:00
4:53 PM,55.0,37.9,53,30.18,10.0,NNE,5.8,-,N/A,,Mostly Cloudy,30,2012-10-07 21:53:00
5:53 PM,53.1,41.0,64,30.19,10.0,North,6.9,-,0.00,,Overcast,360,2012-10-07 22:53:00
6:21 PM,51.8,42.8,71,30.18,10.0,North,6.9,-,0.01,Rain-Thunderstorm,Light Rain,10,2012-10-07 23:21:00
6:36 PM,51.8,42.8,71,30.19,10.0,North,5.8,-,0.02,Rain,Light Rain,350,2012-10-07 23:36:00
6:53 PM,51.8,44.6,76,30.20,10.0,North,3.5,-,N/A,Rain,Light Rain,350,2012-10-07 23:53:00
7:53 PM,51.1,45.0,80,30.21,10.0,Calm,Calm,-,0.00,,Overcast,0,2012-10-08 00:53:00
8:53 PM,51.1,46.0,83,30.22,10.0,Calm,Calm,-,0.00,Rain,Light Rain,0,2012-10-08 01:53:00
9:53 PM,51.1,46.9,86,30.21,10.0,SE,3.5,-,0.01,Rain,Light Rain,130,2012-10-08 02:53:00
10:53 PM,51.1,46.9,86,30.21,10.0,Calm,Calm,-,0.00,,Overcast,0,2012-10-08 03:53:00
11:53 PM,50.0,48.0,93,30.21,10.0,Calm,Calm,-,0.00,Rain,Light Rain,0,2012-10-08 04:53:00